sensor_id;sensor_type;location;lat;lon;timestamp;pressure;altitude;pressure_sealevel;temperature;humidity
22333;BME280;11334;36.986;-121.936;2023-07-29T00:01:58;101029.00;;;34.27;31.24
22333;BME280;11334;36.986;-121.936;2023-07-29T00:04:24;101025.50;;;34.21;30.92
22333;BME280;11334;36.986;-121.936;2023-07-29T00:06:51;101020.56;;;34.23;31.07
22333;BME280;11334;36.986;-121.936;2023-07-29T00:09:17;101016.19;;;34.36;30.75
22333;BME280;11334;36.986;-121.936;2023-07-29T00:11:43;101021.59;;;34.54;30.99
22333;BME280;11334;36.986;-121.936;2023-07-29T00:14:09;101018.31;;;34.65;30.02
22333;BME280;11334;36.986;-121.936;2023-07-29T00:16:36;101009.97;;;34.83;29.07
22333;BME280;11334;36.986;-121.936;2023-07-29T00:19:02;101024.03;;;34.95;29.47
22333;BME280;11334;36.986;-121.936;2023-07-29T00:21:29;101014.25;;;34.89;30.35
22333;BME280;11334;36.986;-121.936;2023-07-29T00:23:55;101021.69;;;35.02;29.92
22333;BME280;11334;36.986;-121.936;2023-07-29T00:26:27;101018.13;;;34.88;30.27
22333;BME280;11334;36.986;-121.936;2023-07-29T00:28:58;101017.00;;;34.89;30.01
22333;BME280;11334;36.986;-121.936;2023-07-29T00:31:24;101017.91;;;34.98;29.38
22333;BME280;11334;36.986;-121.936;2023-07-29T00:33:50;101020.47;;;34.95;29.21
22333;BME280;11334;36.986;-121.936;2023-07-29T00:36:18;101013.47;;;35.10;29.02
22333;BME280;11334;36.986;-121.936;2023-07-29T00:38:45;101003.06;;;35.07;29.64
22333;BME280;11334;36.986;-121.936;2023-07-29T00:41:12;101004.41;;;35.10;29.91
22333;BME280;11334;36.986;-121.936;2023-07-29T00:43:39;101023.81;;;35.05;29.21
22333;BME280;11334;36.986;-121.936;2023-07-29T00:46:07;101014.91;;;35.08;28.35
22333;BME280;11334;36.986;-121.936;2023-07-29T00:48:34;101021.88;;;35.40;27.83
22333;BME280;11334;36.986;-121.936;2023-07-29T00:51:01;101026.31;;;35.28;28.35
22333;BME280;11334;36.986;-121.936;2023-07-29T00:53:27;101022.81;;;35.36;29.11
22333;BME280;11334;36.986;-121.936;2023-07-29T00:55:53;101029.84;;;35.42;28.96
22333;BME280;11334;36.986;-121.936;2023-07-29T00:58:20;101027.34;;;35.32;29.68
22333;BME280;11334;36.986;-121.936;2023-07-29T01:00:47;101037.31;;;35.41;29.76
22333;BME280;11334;36.986;-121.936;2023-07-29T01:03:13;101036.41;;;35.68;30.03
22333;BME280;11334;36.986;-121.936;2023-07-29T01:08:33;101054.59;;;35.34;30.59
22333;BME280;11334;36.986;-121.936;2023-07-29T01:11:38;101045.84;;;35.32;31.09
22333;BME280;11334;36.986;-121.936;2023-07-29T01:14:38;101049.53;;;35.84;31.02
22333;BME280;11334;36.986;-121.936;2023-07-29T01:17:11;101047.28;;;35.86;30.56
22333;BME280;11334;36.986;-121.936;2023-07-29T01:22:10;101045.25;;;35.56;30.67
22333;BME280;11334;36.986;-121.936;2023-07-29T01:24:39;101040.06;;;35.98;29.76
22333;BME280;11334;36.986;-121.936;2023-07-29T01:27:05;101041.16;;;35.97;29.49
22333;BME280;11334;36.986;-121.936;2023-07-29T01:29:31;101044.19;;;35.87;29.92
22333;BME280;11334;36.986;-121.936;2023-07-29T01:32:04;101038.78;;;35.82;30.12
22333;BME280;11334;36.986;-121.936;2023-07-29T01:34:41;101042.09;;;35.93;29.36
22333;BME280;11334;36.986;-121.936;2023-07-29T01:37:14;101046.69;;;35.75;30.19
22333;BME280;11334;36.986;-121.936;2023-07-29T01:39:43;101045.63;;;35.63;30.58
22333;BME280;11334;36.986;-121.936;2023-07-29T01:42:12;101044.69;;;35.68;30.34
22333;BME280;11334;36.986;-121.936;2023-07-29T01:44:38;101048.09;;;35.65;30.27
22333;BME280;11334;36.986;-121.936;2023-07-29T01:47:05;101058.75;;;35.44;30.44
22333;BME280;11334;36.986;-121.936;2023-07-29T01:49:31;101048.03;;;34.95;30.95
22333;BME280;11334;36.986;-121.936;2023-07-29T01:51:57;101048.88;;;34.82;30.98
22333;BME280;11334;36.986;-121.936;2023-07-29T01:54:23;101040.34;;;34.25;31.83
22333;BME280;11334;36.986;-121.936;2023-07-29T01:56:50;101049.06;;;33.64;32.82
22333;BME280;11334;36.986;-121.936;2023-07-29T01:59:17;101055.63;;;33.50;33.06
22333;BME280;11334;36.986;-121.936;2023-07-29T02:01:43;101048.94;;;33.38;33.15
22333;BME280;11334;36.986;-121.936;2023-07-29T02:04:10;101046.66;;;33.03;34.06
22333;BME280;11334;36.986;-121.936;2023-07-29T02:06:36;101045.75;;;32.66;34.30
22333;BME280;11334;36.986;-121.936;2023-07-29T02:09:03;101050.09;;;32.95;33.86
22333;BME280;11334;36.986;-121.936;2023-07-29T02:11:30;101044.25;;;33.02;33.92
22333;BME280;11334;36.986;-121.936;2023-07-29T02:13:57;101053.38;;;33.15;33.61
22333;BME280;11334;36.986;-121.936;2023-07-29T02:16:23;101048.34;;;33.41;33.68
22333;BME280;11334;36.986;-121.936;2023-07-29T02:18:50;101051.94;;;33.73;33.20
22333;BME280;11334;36.986;-121.936;2023-07-29T02:21:16;101048.47;;;33.67;33.22
22333;BME280;11334;36.986;-121.936;2023-07-29T02:23:43;101059.72;;;33.52;33.43
22333;BME280;11334;36.986;-121.936;2023-07-29T02:26:09;101080.72;;;33.07;34.04
22333;BME280;11334;36.986;-121.936;2023-07-29T02:28:36;101079.00;;;32.42;35.28
22333;BME280;11334;36.986;-121.936;2023-07-29T02:31:28;101095.03;;;31.59;36.00
22333;BME280;11334;36.986;-121.936;2023-07-29T02:33:54;101091.03;;;30.89;37.66
22333;BME280;11334;36.986;-121.936;2023-07-29T02:36:21;101095.28;;;30.22;38.90
22333;BME280;11334;36.986;-121.936;2023-07-29T02:38:47;101086.72;;;29.50;40.24
22333;BME280;11334;36.986;-121.936;2023-07-29T02:41:14;101097.72;;;28.94;41.62
22333;BME280;11334;36.986;-121.936;2023-07-29T02:43:43;101102.06;;;28.40;42.35
22333;BME280;11334;36.986;-121.936;2023-07-29T02:46:09;101112.34;;;27.97;43.39
22333;BME280;11334;36.986;-121.936;2023-07-29T02:48:35;101107.13;;;27.38;45.01
22333;BME280;11334;36.986;-121.936;2023-07-29T02:51:04;101118.94;;;27.01;45.66
22333;BME280;11334;36.986;-121.936;2023-07-29T02:53:31;101128.09;;;26.58;47.26
22333;BME280;11334;36.986;-121.936;2023-07-29T02:55:57;101127.31;;;26.25;48.00
22333;BME280;11334;36.986;-121.936;2023-07-29T02:58:23;101126.31;;;25.99;48.66
22333;BME280;11334;36.986;-121.936;2023-07-29T03:00:52;101125.38;;;25.61;50.14
22333;BME280;11334;36.986;-121.936;2023-07-29T03:03:18;101114.34;;;25.39;50.28
22333;BME280;11334;36.986;-121.936;2023-07-29T03:05:45;101127.63;;;25.25;51.48
22333;BME280;11334;36.986;-121.936;2023-07-29T03:08:11;101124.53;;;24.94;52.67
22333;BME280;11334;36.986;-121.936;2023-07-29T03:10:38;101137.53;;;24.69;53.48
22333;BME280;11334;36.986;-121.936;2023-07-29T03:13:05;101138.00;;;24.55;54.35
22333;BME280;11334;36.986;-121.936;2023-07-29T03:15:31;101141.78;;;24.20;54.97
22333;BME280;11334;36.986;-121.936;2023-07-29T03:17:59;101134.56;;;24.03;55.42
22333;BME280;11334;36.986;-121.936;2023-07-29T03:20:26;101145.88;;;24.00;56.15
22333;BME280;11334;36.986;-121.936;2023-07-29T03:22:52;101149.94;;;23.91;56.18
22333;BME280;11334;36.986;-121.936;2023-07-29T03:25:18;101149.34;;;23.78;56.17
22333;BME280;11334;36.986;-121.936;2023-07-29T03:27:44;101145.63;;;23.61;57.11
22333;BME280;11334;36.986;-121.936;2023-07-29T03:30:11;101145.53;;;23.38;57.52
22333;BME280;11334;36.986;-121.936;2023-07-29T03:32:42;101147.22;;;23.21;58.70
22333;BME280;11334;36.986;-121.936;2023-07-29T03:35:09;101147.97;;;22.93;59.70
22333;BME280;11334;36.986;-121.936;2023-07-29T03:37:35;101157.75;;;22.94;60.08
22333;BME280;11334;36.986;-121.936;2023-07-29T03:40:02;101156.53;;;22.90;60.54
22333;BME280;11334;36.986;-121.936;2023-07-29T03:42:28;101156.53;;;22.90;60.24
22333;BME280;11334;36.986;-121.936;2023-07-29T03:44:55;101159.38;;;22.59;61.25
22333;BME280;11334;36.986;-121.936;2023-07-29T03:47:21;101163.13;;;22.58;61.38
22333;BME280;11334;36.986;-121.936;2023-07-29T03:49:47;101165.50;;;22.49;61.50
22333;BME280;11334;36.986;-121.936;2023-07-29T03:52:13;101166.69;;;22.35;62.43
22333;BME280;11334;36.986;-121.936;2023-07-29T03:54:40;101164.03;;;22.28;62.32
22333;BME280;11334;36.986;-121.936;2023-07-29T03:57:06;101169.81;;;22.32;62.37
22333;BME280;11334;36.986;-121.936;2023-07-29T03:59:33;101166.63;;;22.17;62.77
22333;BME280;11334;36.986;-121.936;2023-07-29T04:01:59;101172.31;;;22.09;63.10
22333;BME280;11334;36.986;-121.936;2023-07-29T04:04:25;101178.66;;;21.90;63.29
22333;BME280;11334;36.986;-121.936;2023-07-29T04:06:52;101187.47;;;21.80;64.48
22333;BME280;11334;36.986;-121.936;2023-07-29T04:09:18;101185.16;;;21.77;64.73
22333;BME280;11334;36.986;-121.936;2023-07-29T04:11:44;101192.69;;;21.75;64.86
22333;BME280;11334;36.986;-121.936;2023-07-29T04:14:11;101192.44;;;21.76;64.75
22333;BME280;11334;36.986;-121.936;2023-07-29T04:16:37;101195.84;;;21.65;65.30
22333;BME280;11334;36.986;-121.936;2023-07-29T04:19:03;101192.44;;;21.46;65.98
22333;BME280;11334;36.986;-121.936;2023-07-29T04:21:29;101195.94;;;21.46;66.00
22333;BME280;11334;36.986;-121.936;2023-07-29T04:23:55;101201.59;;;21.38;66.51
22333;BME280;11334;36.986;-121.936;2023-07-29T04:26:22;101197.06;;;21.26;66.90
22333;BME280;11334;36.986;-121.936;2023-07-29T04:28:48;101201.22;;;21.22;66.82
22333;BME280;11334;36.986;-121.936;2023-07-29T04:31:14;101206.59;;;21.22;67.08
22333;BME280;11334;36.986;-121.936;2023-07-29T04:33:40;101208.53;;;21.02;68.19
22333;BME280;11334;36.986;-121.936;2023-07-29T04:36:07;101220.94;;;21.16;67.75
22333;BME280;11334;36.986;-121.936;2023-07-29T04:38:33;101222.81;;;21.16;67.50
22333;BME280;11334;36.986;-121.936;2023-07-29T04:40:59;101225.94;;;21.13;67.72
22333;BME280;11334;36.986;-121.936;2023-07-29T04:43:33;101222.88;;;21.03;67.97
22333;BME280;11334;36.986;-121.936;2023-07-29T04:45:59;101228.69;;;20.93;68.33
22333;BME280;11334;36.986;-121.936;2023-07-29T04:48:25;101221.44;;;20.94;68.61
22333;BME280;11334;36.986;-121.936;2023-07-29T04:50:52;101208.59;;;20.90;68.36
22333;BME280;11334;36.986;-121.936;2023-07-29T04:53:18;101218.53;;;20.95;68.33
22333;BME280;11334;36.986;-121.936;2023-07-29T04:55:45;101218.72;;;20.94;68.26
22333;BME280;11334;36.986;-121.936;2023-07-29T04:58:14;101219.78;;;20.87;68.22
22333;BME280;11334;36.986;-121.936;2023-07-29T05:00:40;101215.66;;;20.84;68.52
22333;BME280;11334;36.986;-121.936;2023-07-29T05:03:06;101230.38;;;20.75;68.48
22333;BME280;11334;36.986;-121.936;2023-07-29T05:05:32;101215.47;;;20.60;68.83
22333;BME280;11334;36.986;-121.936;2023-07-29T05:07:59;101219.41;;;20.58;69.10
22333;BME280;11334;36.986;-121.936;2023-07-29T05:10:25;101218.78;;;20.49;69.02
22333;BME280;11334;36.986;-121.936;2023-07-29T05:12:51;101225.00;;;20.37;69.89
22333;BME280;11334;36.986;-121.936;2023-07-29T05:15:17;101229.56;;;20.36;70.02
22333;BME280;11334;36.986;-121.936;2023-07-29T05:17:44;101229.13;;;20.33;70.89
22333;BME280;11334;36.986;-121.936;2023-07-29T05:20:10;101228.94;;;20.28;71.07
22333;BME280;11334;36.986;-121.936;2023-07-29T05:22:37;101234.09;;;20.23;71.49
22333;BME280;11334;36.986;-121.936;2023-07-29T05:25:03;101237.00;;;20.28;70.96
22333;BME280;11334;36.986;-121.936;2023-07-29T05:27:30;101246.75;;;20.23;71.68
22333;BME280;11334;36.986;-121.936;2023-07-29T05:29:56;101239.50;;;20.17;71.76
22333;BME280;11334;36.986;-121.936;2023-07-29T05:32:22;101249.84;;;20.07;72.64
22333;BME280;11334;36.986;-121.936;2023-07-29T05:34:48;101240.28;;;19.98;72.54
22333;BME280;11334;36.986;-121.936;2023-07-29T05:37:15;101240.31;;;19.92;73.14
22333;BME280;11334;36.986;-121.936;2023-07-29T05:39:41;101245.66;;;19.85;73.86
22333;BME280;11334;36.986;-121.936;2023-07-29T05:42:07;101252.06;;;19.78;74.10
22333;BME280;11334;36.986;-121.936;2023-07-29T05:44:34;101253.69;;;19.79;73.81
22333;BME280;11334;36.986;-121.936;2023-07-29T05:47:00;101246.03;;;19.76;73.90
22333;BME280;11334;36.986;-121.936;2023-07-29T05:49:26;101239.78;;;19.69;72.67
22333;BME280;11334;36.986;-121.936;2023-07-29T05:51:52;101252.53;;;19.48;73.50
22333;BME280;11334;36.986;-121.936;2023-07-29T05:54:19;101244.72;;;19.53;73.21
22333;BME280;11334;36.986;-121.936;2023-07-29T05:56:45;101253.56;;;19.40;74.01
22333;BME280;11334;36.986;-121.936;2023-07-29T05:59:12;101258.69;;;19.42;74.10
22333;BME280;11334;36.986;-121.936;2023-07-29T06:01:38;101257.88;;;19.41;73.86
22333;BME280;11334;36.986;-121.936;2023-07-29T06:04:04;101250.03;;;19.40;74.01
22333;BME280;11334;36.986;-121.936;2023-07-29T06:06:30;101249.59;;;19.36;74.50
22333;BME280;11334;36.986;-121.936;2023-07-29T06:08:57;101254.56;;;19.39;73.88
22333;BME280;11334;36.986;-121.936;2023-07-29T06:11:23;101247.34;;;19.40;73.25
22333;BME280;11334;36.986;-121.936;2023-07-29T06:13:50;101242.16;;;19.38;73.23
22333;BME280;11334;36.986;-121.936;2023-07-29T06:16:16;101245.03;;;19.37;73.67
22333;BME280;11334;36.986;-121.936;2023-07-29T06:18:42;101252.28;;;19.30;73.67
22333;BME280;11334;36.986;-121.936;2023-07-29T06:21:08;101253.09;;;19.31;74.29
22333;BME280;11334;36.986;-121.936;2023-07-29T06:23:38;101257.56;;;19.17;74.85
22333;BME280;11334;36.986;-121.936;2023-07-29T06:26:04;101253.97;;;19.04;75.68
22333;BME280;11334;36.986;-121.936;2023-07-29T06:28:31;101260.25;;;18.84;76.42
22333;BME280;11334;36.986;-121.936;2023-07-29T06:30:57;101273.25;;;18.80;77.25
22333;BME280;11334;36.986;-121.936;2023-07-29T06:33:23;101267.31;;;18.91;77.21
22333;BME280;11334;36.986;-121.936;2023-07-29T06:35:50;101270.16;;;18.83;77.04
22333;BME280;11334;36.986;-121.936;2023-07-29T06:38:16;101264.56;;;18.85;76.96
22333;BME280;11334;36.986;-121.936;2023-07-29T06:40:48;101270.19;;;18.90;76.63
22333;BME280;11334;36.986;-121.936;2023-07-29T06:43:14;101263.66;;;18.71;76.21
22333;BME280;11334;36.986;-121.936;2023-07-29T06:45:40;101253.47;;;18.61;76.52
22333;BME280;11334;36.986;-121.936;2023-07-29T06:48:07;101255.69;;;18.57;76.78
22333;BME280;11334;36.986;-121.936;2023-07-29T06:50:33;101257.31;;;18.52;77.10
22333;BME280;11334;36.986;-121.936;2023-07-29T06:52:59;101253.75;;;18.45;77.09
22333;BME280;11334;36.986;-121.936;2023-07-29T06:55:25;101252.38;;;18.55;76.66
22333;BME280;11334;36.986;-121.936;2023-07-29T06:57:52;101251.69;;;18.47;77.15
22333;BME280;11334;36.986;-121.936;2023-07-29T07:00:18;101243.94;;;18.31;77.80
22333;BME280;11334;36.986;-121.936;2023-07-29T07:02:44;101248.47;;;18.31;77.98
22333;BME280;11334;36.986;-121.936;2023-07-29T07:05:11;101245.41;;;18.34;77.62
22333;BME280;11334;36.986;-121.936;2023-07-29T07:07:37;101253.50;;;18.40;77.73
22333;BME280;11334;36.986;-121.936;2023-07-29T07:10:03;101249.81;;;18.41;77.69
22333;BME280;11334;36.986;-121.936;2023-07-29T07:12:30;101245.44;;;18.40;78.21
22333;BME280;11334;36.986;-121.936;2023-07-29T07:14:56;101247.25;;;18.33;78.21
22333;BME280;11334;36.986;-121.936;2023-07-29T07:17:23;101247.53;;;18.17;79.34
22333;BME280;11334;36.986;-121.936;2023-07-29T07:19:49;101250.63;;;18.21;79.22
22333;BME280;11334;36.986;-121.936;2023-07-29T07:22:16;101250.22;;;18.17;79.37
22333;BME280;11334;36.986;-121.936;2023-07-29T07:24:42;101242.97;;;18.18;78.70
22333;BME280;11334;36.986;-121.936;2023-07-29T07:27:09;101240.63;;;18.08;78.19
22333;BME280;11334;36.986;-121.936;2023-07-29T07:29:35;101256.09;;;18.06;78.96
22333;BME280;11334;36.986;-121.936;2023-07-29T07:32:01;101257.59;;;17.95;79.13
22333;BME280;11334;36.986;-121.936;2023-07-29T07:34:28;101257.63;;;18.01;79.24
22333;BME280;11334;36.986;-121.936;2023-07-29T07:36:54;101256.50;;;17.89;79.42
22333;BME280;11334;36.986;-121.936;2023-07-29T07:39:20;101247.00;;;17.87;79.49
22333;BME280;11334;36.986;-121.936;2023-07-29T07:41:46;101249.28;;;17.90;78.88
22333;BME280;11334;36.986;-121.936;2023-07-29T07:44:13;101255.66;;;17.89;80.20
22333;BME280;11334;36.986;-121.936;2023-07-29T07:46:41;101250.53;;;17.94;80.02
22333;BME280;11334;36.986;-121.936;2023-07-29T07:49:07;101259.13;;;17.83;80.58
22333;BME280;11334;36.986;-121.936;2023-07-29T07:51:34;101247.59;;;17.68;81.48
22333;BME280;11334;36.986;-121.936;2023-07-29T07:54:00;101249.06;;;17.71;81.17
22333;BME280;11334;36.986;-121.936;2023-07-29T07:56:27;101251.31;;;17.67;81.30
22333;BME280;11334;36.986;-121.936;2023-07-29T07:58:53;101245.09;;;17.67;81.56
22333;BME280;11334;36.986;-121.936;2023-07-29T08:01:19;101248.25;;;17.70;81.82
22333;BME280;11334;36.986;-121.936;2023-07-29T08:03:45;101248.50;;;17.75;81.64
22333;BME280;11334;36.986;-121.936;2023-07-29T08:06:12;101243.91;;;17.69;81.44
22333;BME280;11334;36.986;-121.936;2023-07-29T08:08:38;101239.31;;;17.63;81.55
22333;BME280;11334;36.986;-121.936;2023-07-29T08:11:04;101250.41;;;17.60;81.88
22333;BME280;11334;36.986;-121.936;2023-07-29T08:13:31;101245.88;;;17.61;81.75
22333;BME280;11334;36.986;-121.936;2023-07-29T08:15:57;101250.41;;;17.60;81.66
22333;BME280;11334;36.986;-121.936;2023-07-29T08:18:24;101250.59;;;17.59;81.58
22333;BME280;11334;36.986;-121.936;2023-07-29T08:20:57;101239.88;;;17.59;81.40
22333;BME280;11334;36.986;-121.936;2023-07-29T08:23:26;101245.22;;;17.59;81.38
22333;BME280;11334;36.986;-121.936;2023-07-29T08:25:54;101247.09;;;17.58;81.42
22333;BME280;11334;36.986;-121.936;2023-07-29T08:28:22;101240.50;;;17.61;81.06
22333;BME280;11334;36.986;-121.936;2023-07-29T08:30:49;101241.06;;;17.56;80.79
22333;BME280;11334;36.986;-121.936;2023-07-29T08:33:15;101247.59;;;17.47;81.49
22333;BME280;11334;36.986;-121.936;2023-07-29T08:35:41;101235.94;;;17.40;81.94
22333;BME280;11334;36.986;-121.936;2023-07-29T08:38:08;101256.47;;;17.34;82.51
22333;BME280;11334;36.986;-121.936;2023-07-29T08:40:35;101247.88;;;17.38;82.34
22333;BME280;11334;36.986;-121.936;2023-07-29T08:43:05;101258.69;;;17.30;82.53
22333;BME280;11334;36.986;-121.936;2023-07-29T08:45:35;101251.78;;;17.21;82.24
22333;BME280;11334;36.986;-121.936;2023-07-29T08:48:08;101240.06;;;17.22;81.89
22333;BME280;11334;36.986;-121.936;2023-07-29T08:50:36;101246.88;;;17.25;81.89
22333;BME280;11334;36.986;-121.936;2023-07-29T08:53:05;101241.69;;;17.09;82.62
22333;BME280;11334;36.986;-121.936;2023-07-29T08:55:32;101238.00;;;17.10;82.23
22333;BME280;11334;36.986;-121.936;2023-07-29T08:57:59;101241.97;;;17.00;82.83
22333;BME280;11334;36.986;-121.936;2023-07-29T09:00:27;101243.25;;;17.04;82.48
22333;BME280;11334;36.986;-121.936;2023-07-29T09:02:53;101228.03;;;17.04;82.46
22333;BME280;11334;36.986;-121.936;2023-07-29T09:05:23;101224.81;;;16.94;82.87
22333;BME280;11334;36.986;-121.936;2023-07-29T09:07:51;101228.78;;;16.98;82.19
22333;BME280;11334;36.986;-121.936;2023-07-29T09:10:21;101226.66;;;16.94;82.21
22333;BME280;11334;36.986;-121.936;2023-07-29T09:12:49;101221.03;;;16.89;82.67
22333;BME280;11334;36.986;-121.936;2023-07-29T09:15:27;101213.75;;;16.83;82.67
22333;BME280;11334;36.986;-121.936;2023-07-29T09:17:54;101226.84;;;16.78;83.15
22333;BME280;11334;36.986;-121.936;2023-07-29T09:20:27;101212.53;;;16.85;83.00
22333;BME280;11334;36.986;-121.936;2023-07-29T09:22:58;101201.34;;;16.82;82.73
22333;BME280;11334;36.986;-121.936;2023-07-29T09:25:29;101209.66;;;16.73;83.37
22333;BME280;11334;36.986;-121.936;2023-07-29T09:27:59;101202.75;;;16.78;83.47
22333;BME280;11334;36.986;-121.936;2023-07-29T09:30:27;101210.69;;;16.72;83.95
22333;BME280;11334;36.986;-121.936;2023-07-29T09:32:57;101210.59;;;16.65;84.25
22333;BME280;11334;36.986;-121.936;2023-07-29T09:35:27;101208.75;;;16.66;84.09
22333;BME280;11334;36.986;-121.936;2023-07-29T09:37:53;101222.47;;;16.63;84.60
22333;BME280;11334;36.986;-121.936;2023-07-29T09:40:20;101219.72;;;16.56;85.39
22333;BME280;11334;36.986;-121.936;2023-07-29T09:42:54;101192.69;;;16.51;85.18
22333;BME280;11334;36.986;-121.936;2023-07-29T09:45:24;101219.91;;;16.55;85.57
22333;BME280;11334;36.986;-121.936;2023-07-29T09:47:52;101213.06;;;16.52;85.09
22333;BME280;11334;36.986;-121.936;2023-07-29T09:50:19;101226.44;;;16.52;84.79
22333;BME280;11334;36.986;-121.936;2023-07-29T09:52:45;101234.47;;;16.52;85.31
22333;BME280;11334;36.986;-121.936;2023-07-29T09:55:17;101231.34;;;16.49;85.27
22333;BME280;11334;36.986;-121.936;2023-07-29T09:57:45;101236.13;;;16.39;85.83
22333;BME280;11334;36.986;-121.936;2023-07-29T10:00:12;101231.88;;;16.44;85.34
22333;BME280;11334;36.986;-121.936;2023-07-29T10:02:43;101238.72;;;16.47;85.15
22333;BME280;11334;36.986;-121.936;2023-07-29T10:05:10;101240.06;;;16.43;85.12
22333;BME280;11334;36.986;-121.936;2023-07-29T10:07:37;101227.44;;;16.37;85.22
22333;BME280;11334;36.986;-121.936;2023-07-29T10:10:05;101225.34;;;16.47;84.76
22333;BME280;11334;36.986;-121.936;2023-07-29T10:12:32;101227.44;;;16.37;84.75
22333;BME280;11334;36.986;-121.936;2023-07-29T10:15:04;101226.69;;;16.29;84.86
22333;BME280;11334;36.986;-121.936;2023-07-29T10:17:34;101215.91;;;16.37;84.73
22333;BME280;11334;36.986;-121.936;2023-07-29T10:20:01;101218.44;;;16.38;84.17
22333;BME280;11334;36.986;-121.936;2023-07-29T10:22:30;101216.53;;;16.24;84.88
22333;BME280;11334;36.986;-121.936;2023-07-29T10:25:21;101214.88;;;16.23;84.87
22333;BME280;11334;36.986;-121.936;2023-07-29T10:28:00;101213.94;;;16.16;85.23
22333;BME280;11334;36.986;-121.936;2023-07-29T10:30:30;101207.56;;;16.17;85.43
22333;BME280;11334;36.986;-121.936;2023-07-29T10:33:04;101212.09;;;16.17;85.55
22333;BME280;11334;36.986;-121.936;2023-07-29T10:35:33;101215.22;;;16.20;85.28
22333;BME280;11334;36.986;-121.936;2023-07-29T10:38:02;101218.94;;;16.19;85.70
22333;BME280;11334;36.986;-121.936;2023-07-29T10:40:48;101209.59;;;16.15;86.82
22333;BME280;11334;36.986;-121.936;2023-07-29T10:43:35;101213.56;;;15.97;89.15
22333;BME280;11334;36.986;-121.936;2023-07-29T10:46:22;101222.78;;;15.95;88.27
22333;BME280;11334;36.986;-121.936;2023-07-29T10:48:56;101224.88;;;15.85;88.65
22333;BME280;11334;36.986;-121.936;2023-07-29T10:51:29;101221.97;;;15.94;87.64
22333;BME280;11334;36.986;-121.936;2023-07-29T10:56:33;101222.56;;;15.82;88.07
22333;BME280;11334;36.986;-121.936;2023-07-29T10:59:32;101223.81;;;15.72;88.81
22333;BME280;11334;36.986;-121.936;2023-07-29T11:02:00;101204.81;;;15.67;89.15
22333;BME280;11334;36.986;-121.936;2023-07-29T11:04:29;101217.91;;;15.76;89.49
22333;BME280;11334;36.986;-121.936;2023-07-29T11:15:16;101208.06;;;15.77;88.62
22333;BME280;11334;36.986;-121.936;2023-07-29T11:20:21;101216.00;;;15.62;89.82
22333;BME280;11334;36.986;-121.936;2023-07-29T11:22:48;101209.78;;;15.70;89.07
22333;BME280;11334;36.986;-121.936;2023-07-29T11:25:17;101215.50;;;15.67;88.88
22333;BME280;11334;36.986;-121.936;2023-07-29T11:27:45;101214.81;;;15.65;88.93
22333;BME280;11334;36.986;-121.936;2023-07-29T11:30:13;101223.84;;;15.64;88.29
22333;BME280;11334;36.986;-121.936;2023-07-29T11:32:41;101224.34;;;15.67;88.06
22333;BME280;11334;36.986;-121.936;2023-07-29T11:35:16;101223.72;;;15.57;89.16
22333;BME280;11334;36.986;-121.936;2023-07-29T11:37:45;101232.44;;;15.51;90.20
22333;BME280;11334;36.986;-121.936;2023-07-29T11:40:16;101229.72;;;15.59;89.77
22333;BME280;11334;36.986;-121.936;2023-07-29T11:42:43;101215.72;;;15.57;89.71
22333;BME280;11334;36.986;-121.936;2023-07-29T11:45:09;101218.03;;;15.60;89.63
22333;BME280;11334;36.986;-121.936;2023-07-29T11:47:36;101220.69;;;15.60;88.89
22333;BME280;11334;36.986;-121.936;2023-07-29T11:50:07;101219.03;;;15.59;88.49
22333;BME280;11334;36.986;-121.936;2023-07-29T11:52:36;101213.03;;;15.57;88.43
22333;BME280;11334;36.986;-121.936;2023-07-29T11:55:04;101210.44;;;15.49;88.99
22333;BME280;11334;36.986;-121.936;2023-07-29T11:57:35;101220.09;;;15.50;89.44
22333;BME280;11334;36.986;-121.936;2023-07-29T12:00:06;101216.41;;;15.51;89.75
22333;BME280;11334;36.986;-121.936;2023-07-29T12:02:34;101224.00;;;15.40;90.11
22333;BME280;11334;36.986;-121.936;2023-07-29T12:05:04;101225.84;;;15.40;90.40
22333;BME280;11334;36.986;-121.936;2023-07-29T12:07:31;101219.19;;;15.36;90.60
22333;BME280;11334;36.986;-121.936;2023-07-29T12:09:59;101226.16;;;15.45;90.68
22333;BME280;11334;36.986;-121.936;2023-07-29T12:12:25;101232.06;;;15.32;90.99
22333;BME280;11334;36.986;-121.936;2023-07-29T12:14:54;101237.41;;;15.32;90.92
22333;BME280;11334;36.986;-121.936;2023-07-29T12:17:21;101235.78;;;15.23;91.34
22333;BME280;11334;36.986;-121.936;2023-07-29T12:19:47;101239.63;;;15.21;91.79
22333;BME280;11334;36.986;-121.936;2023-07-29T12:22:18;101243.72;;;15.31;91.47
22333;BME280;11334;36.986;-121.936;2023-07-29T12:24:45;101236.91;;;15.29;91.32
22333;BME280;11334;36.986;-121.936;2023-07-29T12:27:12;101250.81;;;15.17;91.61
22333;BME280;11334;36.986;-121.936;2023-07-29T12:29:43;101256.66;;;15.04;92.64
22333;BME280;11334;36.986;-121.936;2023-07-29T12:32:10;101253.16;;;15.12;92.62
22333;BME280;11334;36.986;-121.936;2023-07-29T12:34:38;101259.31;;;15.20;91.63
22333;BME280;11334;36.986;-121.936;2023-07-29T12:37:06;101245.47;;;15.17;91.83
22333;BME280;11334;36.986;-121.936;2023-07-29T12:39:34;101255.16;;;15.18;92.01
22333;BME280;11334;36.986;-121.936;2023-07-29T12:42:01;101255.28;;;15.24;91.89
22333;BME280;11334;36.986;-121.936;2023-07-29T12:44:35;101262.81;;;15.20;91.94